sensor_id;sensor_type;location;lat;lon;timestamp;P1;durP1;ratioP1;P2;durP2;ratioP2
48627;SDS011;34424;52.234;6.500;2022-07-29T00:02:33;2.13;;;1.50;;
48627;SDS011;34424;52.234;6.500;2022-07-29T00:07:36;3.28;;;1.65;;
48627;SDS011;34424;52.234;6.500;2022-07-29T00:12:39;1.97;;;1.43;;
48627;SDS011;34424;52.234;6.500;2022-07-29T00:17:43;3.65;;;1.90;;
48627;SDS011;34424;52.234;6.500;2022-07-29T00:22:45;2.40;;;2.00;;
48627;SDS011;34424;52.234;6.500;2022-07-29T00:27:48;2.70;;;1.98;;
48627;SDS011;34424;52.234;6.500;2022-07-29T00:32:52;3.47;;;1.90;;
48627;SDS011;34424;52.234;6.500;2022-07-29T00:37:55;2.00;;;1.80;;
48627;SDS011;34424;52.234;6.500;2022-07-29T00:42:57;4.93;;;2.23;;
48627;SDS011;34424;52.234;6.500;2022-07-29T00:48:01;3.80;;;2.40;;
48627;SDS011;34424;52.234;6.500;2022-07-29T00:53:06;5.20;;;2.63;;
48627;SDS011;34424;52.234;6.500;2022-07-29T00:58:09;4.22;;;2.00;;
48627;SDS011;34424;52.234;6.500;2022-07-29T01:03:17;2.50;;;1.92;;
48627;SDS011;34424;52.234;6.500;2022-07-29T01:08:20;2.20;;;2.00;;
48627;SDS011;34424;52.234;6.500;2022-07-29T01:13:24;5.88;;;2.35;;
48627;SDS011;34424;52.234;6.500;2022-07-29T01:18:30;2.55;;;1.92;;
48627;SDS011;34424;52.234;6.500;2022-07-29T01:23:46;4.30;;;2.13;;
48627;SDS011;34424;52.234;6.500;2022-07-29T01:29:02;2.65;;;1.90;;
48627;SDS011;34424;52.234;6.500;2022-07-29T01:34:09;4.47;;;1.90;;
48627;SDS011;34424;52.234;6.500;2022-07-29T01:39:18;4.03;;;2.05;;
48627;SDS011;34424;52.234;6.500;2022-07-29T01:44:26;2.65;;;1.92;;
48627;SDS011;34424;52.234;6.500;2022-07-29T01:49:35;7.53;;;2.42;;
48627;SDS011;34424;52.234;6.500;2022-07-29T01:54:42;5.15;;;2.30;;
48627;SDS011;34424;52.234;6.500;2022-07-29T01:59:48;2.47;;;1.98;;
48627;SDS011;34424;52.234;6.500;2022-07-29T02:04:53;3.90;;;2.63;;
48627;SDS011;34424;52.234;6.500;2022-07-29T02:09:57;4.55;;;2.05;;
48627;SDS011;34424;52.234;6.500;2022-07-29T02:15:04;4.30;;;2.13;;
48627;SDS011;34424;52.234;6.500;2022-07-29T02:20:11;5.15;;;2.08;;
48627;SDS011;34424;52.234;6.500;2022-07-29T02:25:15;3.85;;;2.38;;
48627;SDS011;34424;52.234;6.500;2022-07-29T02:30:20;3.47;;;1.98;;
48627;SDS011;34424;52.234;6.500;2022-07-29T02:35:24;3.53;;;2.05;;
48627;SDS011;34424;52.234;6.500;2022-07-29T02:40:34;3.75;;;2.22;;
48627;SDS011;34424;52.234;6.500;2022-07-29T02:45:41;2.88;;;2.00;;
48627;SDS011;34424;52.234;6.500;2022-07-29T02:50:47;4.95;;;2.60;;
48627;SDS011;34424;52.234;6.500;2022-07-29T02:55:55;4.03;;;2.40;;
48627;SDS011;34424;52.234;6.500;2022-07-29T03:01:01;2.83;;;2.20;;
48627;SDS011;34424;52.234;6.500;2022-07-29T03:06:06;5.78;;;2.47;;
48627;SDS011;34424;52.234;6.500;2022-07-29T03:11:30;4.43;;;2.33;;
48627;SDS011;34424;52.234;6.500;2022-07-29T03:16:51;2.90;;;2.28;;
48627;SDS011;34424;52.234;6.500;2022-07-29T03:21:55;2.80;;;2.13;;
48627;SDS011;34424;52.234;6.500;2022-07-29T03:26:59;2.15;;;1.92;;
48627;SDS011;34424;52.234;6.500;2022-07-29T03:32:04;4.28;;;2.42;;
48627;SDS011;34424;52.234;6.500;2022-07-29T03:37:08;5.47;;;2.60;;
48627;SDS011;34424;52.234;6.500;2022-07-29T03:42:11;4.07;;;2.43;;
48627;SDS011;34424;52.234;6.500;2022-07-29T03:47:20;5.20;;;2.17;;
48627;SDS011;34424;52.234;6.500;2022-07-29T03:52:49;2.47;;;2.25;;
48627;SDS011;34424;52.234;6.500;2022-07-29T03:57:52;3.28;;;2.50;;
48627;SDS011;34424;52.234;6.500;2022-07-29T04:02:57;6.35;;;2.67;;
48627;SDS011;34424;52.234;6.500;2022-07-29T04:08:00;2.40;;;2.13;;
48627;SDS011;34424;52.234;6.500;2022-07-29T04:13:02;4.00;;;2.90;;
48627;SDS011;34424;52.234;6.500;2022-07-29T04:18:06;3.43;;;3.13;;
48627;SDS011;34424;52.234;6.500;2022-07-29T04:23:09;5.40;;;2.92;;
48627;SDS011;34424;52.234;6.500;2022-07-29T04:28:11;6.57;;;3.37;;
48627;SDS011;34424;52.234;6.500;2022-07-29T04:33:18;5.57;;;2.75;;
48627;SDS011;34424;52.234;6.500;2022-07-29T04:38:21;4.55;;;2.92;;
48627;SDS011;34424;52.234;6.500;2022-07-29T04:43:23;3.88;;;2.58;;
48627;SDS011;34424;52.234;6.500;2022-07-29T04:48:28;3.47;;;2.50;;
48627;SDS011;34424;52.234;6.500;2022-07-29T04:53:31;3.85;;;2.63;;
48627;SDS011;34424;52.234;6.500;2022-07-29T04:58:33;3.20;;;2.40;;
48627;SDS011;34424;52.234;6.500;2022-07-29T05:03:38;5.00;;;2.60;;
48627;SDS011;34424;52.234;6.500;2022-07-29T05:08:41;3.60;;;2.40;;
48627;SDS011;34424;52.234;6.500;2022-07-29T05:13:43;4.23;;;2.60;;
48627;SDS011;34424;52.234;6.500;2022-07-29T05:18:48;2.97;;;2.50;;
48627;SDS011;34424;52.234;6.500;2022-07-29T05:23:51;3.60;;;2.33;;
48627;SDS011;34424;52.234;6.500;2022-07-29T05:28:53;3.47;;;2.60;;
48627;SDS011;34424;52.234;6.500;2022-07-29T05:33:57;9.90;;;2.40;;
48627;SDS011;34424;52.234;6.500;2022-07-29T05:39:00;4.75;;;2.47;;
48627;SDS011;34424;52.234;6.500;2022-07-29T05:44:03;4.18;;;3.15;;
48627;SDS011;34424;52.234;6.500;2022-07-29T05:49:06;4.00;;;3.00;;
48627;SDS011;34424;52.234;6.500;2022-07-29T05:54:09;8.68;;;3.95;;
48627;SDS011;34424;52.234;6.500;2022-07-29T05:59:12;6.10;;;3.47;;
48627;SDS011;34424;52.234;6.500;2022-07-29T06:04:19;7.35;;;4.63;;
48627;SDS011;34424;52.234;6.500;2022-07-29T06:09:22;5.35;;;4.30;;
48627;SDS011;34424;52.234;6.500;2022-07-29T06:14:25;5.53;;;4.97;;
48627;SDS011;34424;52.234;6.500;2022-07-29T06:19:30;5.97;;;5.32;;
48627;SDS011;34424;52.234;6.500;2022-07-29T06:24:33;9.35;;;5.38;;
48627;SDS011;34424;52.234;6.500;2022-07-29T06:29:36;10.53;;;5.73;;
48627;SDS011;34424;52.234;6.500;2022-07-29T06:34:40;9.02;;;5.18;;
48627;SDS011;34424;52.234;6.500;2022-07-29T06:39:46;7.40;;;5.20;;
48627;SDS011;34424;52.234;6.500;2022-07-29T06:44:49;6.13;;;4.63;;
48627;SDS011;34424;52.234;6.500;2022-07-29T06:49:52;6.63;;;4.93;;
48627;SDS011;34424;52.234;6.500;2022-07-29T06:54:55;6.05;;;4.88;;
48627;SDS011;34424;52.234;6.500;2022-07-29T06:59:58;5.43;;;4.60;;
48627;SDS011;34424;52.234;6.500;2022-07-29T07:05:02;5.00;;;4.50;;
48627;SDS011;34424;52.234;6.500;2022-07-29T07:10:06;12.85;;;5.43;;
48627;SDS011;34424;52.234;6.500;2022-07-29T07:15:09;5.10;;;4.38;;
48627;SDS011;34424;52.234;6.500;2022-07-29T07:20:14;9.02;;;4.45;;
48627;SDS011;34424;52.234;6.500;2022-07-29T07:25:16;7.97;;;4.03;;
48627;SDS011;34424;52.234;6.500;2022-07-29T07:30:19;4.22;;;3.83;;
48627;SDS011;34424;52.234;6.500;2022-07-29T07:35:23;6.32;;;4.30;;
48627;SDS011;34424;52.234;6.500;2022-07-29T07:40:27;6.75;;;4.30;;
48627;SDS011;34424;52.234;6.500;2022-07-29T07:45:30;4.93;;;4.43;;
48627;SDS011;34424;52.234;6.500;2022-07-29T07:50:36;5.72;;;4.65;;
48627;SDS011;34424;52.234;6.500;2022-07-29T07:55:39;9.93;;;5.50;;
48627;SDS011;34424;52.234;6.500;2022-07-29T08:01:02;8.02;;;5.38;;
48627;SDS011;34424;52.234;6.500;2022-07-29T08:11:09;6.33;;;5.67;;
48627;SDS011;34424;52.234;6.500;2022-07-29T08:16:12;7.95;;;5.70;;
48627;SDS011;34424;52.234;6.500;2022-07-29T08:21:18;6.57;;;5.82;;
48627;SDS011;34424;52.234;6.500;2022-07-29T08:26:20;8.88;;;5.97;;
48627;SDS011;34424;52.234;6.500;2022-07-29T08:31:23;6.30;;;5.47;;
48627;SDS011;34424;52.234;6.500;2022-07-29T08:36:27;10.38;;;5.28;;
48627;SDS011;34424;52.234;6.500;2022-07-29T08:41:30;8.68;;;5.95;;
48627;SDS011;34424;52.234;6.500;2022-07-29T08:46:33;8.20;;;6.13;;
48627;SDS011;34424;52.234;6.500;2022-07-29T08:56:50;7.07;;;5.60;;
48627;SDS011;34424;52.234;6.500;2022-07-29T09:01:55;9.05;;;6.00;;
48627;SDS011;34424;52.234;6.500;2022-07-29T09:07:03;6.43;;;5.47;;
48627;SDS011;34424;52.234;6.500;2022-07-29T09:12:06;7.05;;;5.82;;
48627;SDS011;34424;52.234;6.500;2022-07-29T09:17:09;10.90;;;6.53;;
48627;SDS011;34424;52.234;6.500;2022-07-29T09:22:13;8.88;;;6.43;;
48627;SDS011;34424;52.234;6.500;2022-07-29T09:27:31;7.72;;;6.72;;
48627;SDS011;34424;52.234;6.500;2022-07-29T09:32:35;9.93;;;5.85;;
48627;SDS011;34424;52.234;6.500;2022-07-29T09:37:58;5.88;;;5.28;;
48627;SDS011;34424;52.234;6.500;2022-07-29T09:43:12;7.97;;;5.28;;
48627;SDS011;34424;52.234;6.500;2022-07-29T09:48:16;6.65;;;5.47;;
48627;SDS011;34424;52.234;6.500;2022-07-29T09:53:30;8.82;;;5.50;;
48627;SDS011;34424;52.234;6.500;2022-07-29T09:58:34;7.07;;;5.60;;
48627;SDS011;34424;52.234;6.500;2022-07-29T10:03:49;12.32;;;6.63;;
48627;SDS011;34424;52.234;6.500;2022-07-29T10:08:54;9.80;;;6.03;;
48627;SDS011;34424;52.234;6.500;2022-07-29T10:13:57;6.88;;;5.65;;
48627;SDS011;34424;52.234;6.500;2022-07-29T10:24:05;6.60;;;5.10;;
48627;SDS011;34424;52.234;6.500;2022-07-29T10:29:15;7.75;;;5.40;;
48627;SDS011;34424;52.234;6.500;2022-07-29T10:34:19;8.98;;;5.80;;
48627;SDS011;34424;52.234;6.500;2022-07-29T10:39:36;11.80;;;5.63;;
48627;SDS011;34424;52.234;6.500;2022-07-29T10:44:52;7.85;;;6.30;;
48627;SDS011;34424;52.234;6.500;2022-07-29T10:49:58;7.22;;;5.32;;
48627;SDS011;34424;52.234;6.500;2022-07-29T10:55:03;8.60;;;5.60;;
48627;SDS011;34424;52.234;6.500;2022-07-29T11:00:25;6.80;;;4.75;;
48627;SDS011;34424;52.234;6.500;2022-07-29T11:05:29;7.43;;;4.70;;
48627;SDS011;34424;52.234;6.500;2022-07-29T11:10:42;4.47;;;3.92;;
48627;SDS011;34424;52.234;6.500;2022-07-29T11:15:52;6.40;;;3.80;;
48627;SDS011;34424;52.234;6.500;2022-07-29T11:20:56;4.55;;;4.15;;
48627;SDS011;34424;52.234;6.500;2022-07-29T11:26:19;6.13;;;4.05;;
48627;SDS011;34424;52.234;6.500;2022-07-29T11:31:32;6.55;;;4.22;;
48627;SDS011;34424;52.234;6.500;2022-07-29T11:36:36;5.35;;;3.90;;
48627;SDS011;34424;52.234;6.500;2022-07-29T11:42:38;4.97;;;3.70;;
48627;SDS011;34424;52.234;6.500;2022-07-29T11:47:49;5.55;;;3.65;;
48627;SDS011;34424;52.234;6.500;2022-07-29T11:52:53;7.05;;;3.75;;
48627;SDS011;34424;52.234;6.500;2022-07-29T11:57:59;6.97;;;3.90;;
48627;SDS011;34424;52.234;6.500;2022-07-29T12:03:05;4.75;;;3.75;;
48627;SDS011;34424;52.234;6.500;2022-07-29T12:08:10;7.00;;;3.40;;
48627;SDS011;34424;52.234;6.500;2022-07-29T12:13:17;4.00;;;3.00;;
48627;SDS011;34424;52.234;6.500;2022-07-29T12:18:22;3.65;;;2.63;;
48627;SDS011;34424;52.234;6.500;2022-07-29T12:23:25;4.57;;;2.88;;
48627;SDS011;34424;52.234;6.500;2022-07-29T12:28:37;3.58;;;2.45;;
48627;SDS011;34424;52.234;6.500;2022-07-29T12:33:40;5.88;;;3.25;;
48627;SDS011;34424;52.234;6.500;2022-07-29T12:38:43;6.07;;;2.90;;
48627;SDS011;34424;52.234;6.500;2022-07-29T12:43:54;6.85;;;2.95;;
48627;SDS011;34424;52.234;6.500;2022-07-29T12:48:57;6.60;;;3.88;;
48627;SDS011;34424;52.234;6.500;2022-07-29T12:54:04;4.75;;;3.58;;
48627;SDS011;34424;52.234;6.500;2022-07-29T12:59:13;6.88;;;3.67;;
48627;SDS011;34424;52.234;6.500;2022-07-29T13:04:24;4.75;;;2.85;;
48627;SDS011;34424;52.234;6.500;2022-07-29T13:09:35;5.80;;;3.28;;
48627;SDS011;34424;52.234;6.500;2022-07-29T13:14:41;4.43;;;3.50;;
48627;SDS011;34424;52.234;6.500;2022-07-29T13:19:47;6.82;;;2.97;;
48627;SDS011;34424;52.234;6.500;2022-07-29T13:24:52;4.65;;;2.38;;
48627;SDS011;34424;52.234;6.500;2022-07-29T13:29:58;5.18;;;2.80;;
48627;SDS011;34424;52.234;6.500;2022-07-29T13:35:03;4.30;;;2.63;;
48627;SDS011;34424;52.234;6.500;2022-07-29T13:40:08;6.60;;;3.33;;
48627;SDS011;34424;52.234;6.500;2022-07-29T13:45:13;3.97;;;2.88;;
48627;SDS011;34424;52.234;6.500;2022-07-29T13:50:16;3.92;;;2.80;;
48627;SDS011;34424;52.234;6.500;2022-07-29T13:55:18;4.15;;;2.40;;
48627;SDS011;34424;52.234;6.500;2022-07-29T14:00:22;6.70;;;2.60;;
48627;SDS011;34424;52.234;6.500;2022-07-29T14:05:25;3.60;;;2.80;;
48627;SDS011;34424;52.234;6.500;2022-07-29T14:10:28;5.93;;;2.80;;
48627;SDS011;34424;52.234;6.500;2022-07-29T14:15:32;3.30;;;2.60;;
48627;SDS011;34424;52.234;6.500;2022-07-29T14:20:39;5.10;;;2.92;;
48627;SDS011;34424;52.234;6.500;2022-07-29T14:25:42;4.20;;;2.55;;
48627;SDS011;34424;52.234;6.500;2022-07-29T14:30:46;8.52;;;3.38;;
48627;SDS011;34424;52.234;6.500;2022-07-29T14:35:49;3.45;;;2.95;;
48627;SDS011;34424;52.234;6.500;2022-07-29T14:40:51;5.22;;;2.90;;
48627;SDS011;34424;52.234;6.500;2022-07-29T14:45:55;4.80;;;2.78;;
48627;SDS011;34424;52.234;6.500;2022-07-29T14:51:05;3.13;;;2.85;;
48627;SDS011;34424;52.234;6.500;2022-07-29T14:56:07;10.48;;;2.60;;
48627;SDS011;34424;52.234;6.500;2022-07-29T15:01:31;5.45;;;2.30;;
48627;SDS011;34424;52.234;6.500;2022-07-29T15:06:34;3.95;;;2.10;;
48627;SDS011;34424;52.234;6.500;2022-07-29T15:11:37;3.03;;;2.00;;
48627;SDS011;34424;52.234;6.500;2022-07-29T15:16:41;3.88;;;2.00;;
48627;SDS011;34424;52.234;6.500;2022-07-29T15:21:48;2.78;;;1.67;;
48627;SDS011;34424;52.234;6.500;2022-07-29T15:26:51;7.43;;;2.30;;
48627;SDS011;34424;52.234;6.500;2022-07-29T15:31:54;3.05;;;2.00;;
48627;SDS011;34424;52.234;6.500;2022-07-29T15:36:58;4.15;;;1.80;;
48627;SDS011;34424;52.234;6.500;2022-07-29T15:42:00;4.93;;;2.20;;
48627;SDS011;34424;52.234;6.500;2022-07-29T15:47:06;4.25;;;1.98;;
48627;SDS011;34424;52.234;6.500;2022-07-29T15:52:09;5.18;;;2.13;;
48627;SDS011;34424;52.234;6.500;2022-07-29T15:57:12;7.15;;;2.20;;
48627;SDS011;34424;52.234;6.500;2022-07-29T16:02:16;2.47;;;1.70;;
48627;SDS011;34424;52.234;6.500;2022-07-29T16:07:19;4.32;;;1.83;;
48627;SDS011;34424;52.234;6.500;2022-07-29T16:12:22;3.95;;;1.75;;
48627;SDS011;34424;52.234;6.500;2022-07-29T16:17:26;4.00;;;1.85;;
48627;SDS011;34424;52.234;6.500;2022-07-29T16:22:29;4.57;;;1.90;;
48627;SDS011;34424;52.234;6.500;2022-07-29T16:27:31;3.40;;;1.80;;
48627;SDS011;34424;52.234;6.500;2022-07-29T16:32:39;4.60;;;2.80;;
48627;SDS011;34424;52.234;6.500;2022-07-29T16:37:42;5.28;;;2.00;;
48627;SDS011;34424;52.234;6.500;2022-07-29T16:42:45;7.40;;;2.10;;
48627;SDS011;34424;52.234;6.500;2022-07-29T16:47:49;2.28;;;1.88;;
48627;SDS011;34424;52.234;6.500;2022-07-29T16:52:52;3.28;;;1.73;;
48627;SDS011;34424;52.234;6.500;2022-07-29T16:57:55;6.32;;;2.15;;
48627;SDS011;34424;52.234;6.500;2022-07-29T17:02:59;5.57;;;2.17;;
48627;SDS011;34424;52.234;6.500;2022-07-29T17:08:02;6.00;;;1.70;;
48627;SDS011;34424;52.234;6.500;2022-07-29T17:13:04;6.93;;;2.10;;
48627;SDS011;34424;52.234;6.500;2022-07-29T17:18:11;4.93;;;1.83;;
48627;SDS011;34424;52.234;6.500;2022-07-29T17:23:13;6.55;;;2.30;;
48627;SDS011;34424;52.234;6.500;2022-07-29T17:28:16;6.70;;;2.17;;
48627;SDS011;34424;52.234;6.500;2022-07-29T17:33:20;3.45;;;1.90;;
48627;SDS011;34424;52.234;6.500;2022-07-29T17:38:22;6.05;;;1.90;;
48627;SDS011;34424;52.234;6.500;2022-07-29T17:43:25;3.92;;;2.00;;
48627;SDS011;34424;52.234;6.500;2022-07-29T17:48:29;4.22;;;1.90;;
48627;SDS011;34424;52.234;6.500;2022-07-29T17:53:32;4.03;;;1.95;;
48627;SDS011;34424;52.234;6.500;2022-07-29T17:58:34;10.25;;;2.17;;
48627;SDS011;34424;52.234;6.500;2022-07-29T18:03:39;4.63;;;2.00;;
48627;SDS011;34424;52.234;6.500;2022-07-29T18:08:42;3.67;;;1.65;;
48627;SDS011;34424;52.234;6.500;2022-07-29T18:13:47;5.38;;;2.25;;
48627;SDS011;34424;52.234;6.500;2022-07-29T18:18:51;3.08;;;1.80;;
48627;SDS011;34424;52.234;6.500;2022-07-29T18:23:54;4.68;;;1.67;;
48627;SDS011;34424;52.234;6.500;2022-07-29T18:28:56;2.50;;;1.88;;
48627;SDS011;34424;52.234;6.500;2022-07-29T18:34:00;2.63;;;1.80;;
48627;SDS011;34424;52.234;6.500;2022-07-29T18:39:03;3.47;;;2.20;;
48627;SDS011;34424;52.234;6.500;2022-07-29T18:44:05;3.70;;;2.10;;
48627;SDS011;34424;52.234;6.500;2022-07-29T18:49:11;3.10;;;1.88;;
48627;SDS011;34424;52.234;6.500;2022-07-29T18:54:14;5.55;;;2.28;;
48627;SDS011;34424;52.234;6.500;2022-07-29T18:59:18;5.50;;;2.83;;
48627;SDS011;34424;52.234;6.500;2022-07-29T19:04:22;6.47;;;2.42;;
48627;SDS011;34424;52.234;6.500;2022-07-29T19:09:25;4.00;;;2.00;;
48627;SDS011;34424;52.234;6.500;2022-07-29T19:14:28;6.78;;;2.30;;
48627;SDS011;34424;52.234;6.500;2022-07-29T19:19:31;3.20;;;2.00;;
48627;SDS011;34424;52.234;6.500;2022-07-29T19:24:34;3.92;;;2.10;;
48627;SDS011;34424;52.234;6.500;2022-07-29T19:29:37;4.85;;;2.10;;
48627;SDS011;34424;52.234;6.500;2022-07-29T19:34:41;7.88;;;4.20;;
48627;SDS011;34424;52.234;6.500;2022-07-29T19:40:04;4.38;;;2.95;;
48627;SDS011;34424;52.234;6.500;2022-07-29T19:45:08;4.95;;;2.47;;
48627;SDS011;34424;52.234;6.500;2022-07-29T19:50:13;3.70;;;2.80;;
48627;SDS011;34424;52.234;6.500;2022-07-29T19:55:16;5.05;;;3.03;;
48627;SDS011;34424;52.234;6.500;2022-07-29T20:00:20;3.58;;;2.45;;
48627;SDS011;34424;52.234;6.500;2022-07-29T20:05:25;6.85;;;2.97;;
48627;SDS011;34424;52.234;6.500;2022-07-29T20:10:28;4.53;;;3.50;;
48627;SDS011;34424;52.234;6.500;2022-07-29T20:15:31;5.35;;;4.07;;
48627;SDS011;34424;52.234;6.500;2022-07-29T20:20:35;8.35;;;4.63;;
48627;SDS011;34424;52.234;6.500;2022-07-29T20:25:37;5.65;;;4.38;;
48627;SDS011;34424;52.234;6.500;2022-07-29T20:30:40;7.30;;;4.78;;
48627;SDS011;34424;52.234;6.500;2022-07-29T20:35:44;14.07;;;4.80;;
48627;SDS011;34424;52.234;6.500;2022-07-29T20:40:47;6.18;;;4.63;;
48627;SDS011;34424;52.234;6.500;2022-07-29T20:45:50;9.30;;;5.22;;
48627;SDS011;34424;52.234;6.500;2022-07-29T20:50:54;6.13;;;4.25;;
48627;SDS011;34424;52.234;6.500;2022-07-29T20:55:57;6.43;;;4.70;;
48627;SDS011;34424;52.234;6.500;2022-07-29T21:00:59;8.15;;;5.30;;
48627;SDS011;34424;52.234;6.500;2022-07-29T21:06:04;6.93;;;5.85;;
48627;SDS011;34424;52.234;6.500;2022-07-29T21:11:07;8.38;;;4.82;;
48627;SDS011;34424;52.234;6.500;2022-07-29T21:16:10;8.43;;;5.13;;
48627;SDS011;34424;52.234;6.500;2022-07-29T21:21:16;7.65;;;5.63;;
48627;SDS011;34424;52.234;6.500;2022-07-29T21:26:19;6.13;;;4.57;;
48627;SDS011;34424;52.234;6.500;2022-07-29T21:31:22;5.78;;;4.72;;
48627;SDS011;34424;52.234;6.500;2022-07-29T21:36:26;6.38;;;4.70;;
48627;SDS011;34424;52.234;6.500;2022-07-29T21:41:48;8.15;;;4.97;;
48627;SDS011;34424;52.234;6.500;2022-07-29T21:46:51;6.32;;;5.03;;
48627;SDS011;34424;52.234;6.500;2022-07-29T21:51:55;9.90;;;6.32;;
48627;SDS011;34424;52.234;6.500;2022-07-29T21:56:58;8.68;;;6.30;;
48627;SDS011;34424;52.234;6.500;2022-07-29T22:02:01;11.27;;;7.78;;
48627;SDS011;34424;52.234;6.500;2022-07-29T22:07:05;11.18;;;8.70;;
48627;SDS011;34424;52.234;6.500;2022-07-29T22:12:08;11.43;;;8.80;;
48627;SDS011;34424;52.234;6.500;2022-07-29T22:17:11;12.40;;;9.23;;
48627;SDS011;34424;52.234;6.500;2022-07-29T22:22:15;11.65;;;9.38;;
48627;SDS011;34424;52.234;6.500;2022-07-29T22:27:18;11.98;;;9.32;;
48627;SDS011;34424;52.234;6.500;2022-07-29T22:32:22;12.57;;;9.45;;
48627;SDS011;34424;52.234;6.500;2022-07-29T22:37:26;13.27;;;10.07;;
48627;SDS011;34424;52.234;6.500;2022-07-29T22:42:28;15.13;;;10.65;;
48627;SDS011;34424;52.234;6.500;2022-07-29T22:47:31;10.18;;;9.18;;
48627;SDS011;34424;52.234;6.500;2022-07-29T22:52:50;13.07;;;10.85;;
48627;SDS011;34424;52.234;6.500;2022-07-29T22:57:52;15.02;;;11.75;;
48627;SDS011;34424;52.234;6.500;2022-07-29T23:02:55;13.85;;;10.75;;
48627;SDS011;34424;52.234;6.500;2022-07-29T23:07:59;14.37;;;10.03;;
48627;SDS011;34424;52.234;6.500;2022-07-29T23:13:01;14.05;;;12.07;;
48627;SDS011;34424;52.234;6.500;2022-07-29T23:18:04;16.35;;;13.40;;
48627;SDS011;34424;52.234;6.500;2022-07-29T23:23:08;17.92;;;12.32;;
48627;SDS011;34424;52.234;6.500;2022-07-29T23:28:11;15.23;;;13.60;;
48627;SDS011;34424;52.234;6.500;2022-07-29T23:33:14;20.17;;;13.65;;
48627;SDS011;34424;52.234;6.500;2022-07-29T23:38:18;16.73;;;12.97;;
48627;SDS011;34424;52.234;6.500;2022-07-29T23:43:20;19.70;;;13.98;;
48627;SDS011;34424;52.234;6.500;2022-07-29T23:48:23;19.17;;;14.05;;
48627;SDS011;34424;52.234;6.500;2022-07-29T23:53:28;17.65;;;14.10;;
48627;SDS011;34424;52.234;6.500;2022-07-29T23:58:31;16.38;;;12.93;;
